Time;durP1;ratioP1;P1;durP2;ratioP2;P2;SDS_P1;SDS_P2;PMS_P1;PMS_P2;Temp;Humidity;BMP_temperature;BMP_pressure;BME280_temperature;BME280_humidity;BME280_pressure;Samples;Min_cycle;Max_cycle;Signal;HPM_P1;HPM_P2
2022/07/03 00:00:08;;;;;;;3.13;2.00;;;;;;;16.30;100.00;101215.41;5026783;28;20419;-82
2022/07/03 00:02:41;;;;;;;2.67;2.07;;;;;;;16.31;100.00;101211.53;5034494;28;20423;-83
2022/07/03 00:05:09;;;;;;;2.70;1.90;;;;;;;16.28;100.00;101204.72;5046965;28;20413;-83
2022/07/03 00:07:43;;;;;;;2.97;2.00;;;;;;;16.24;100.00;101203.69;5035075;28;20761;-83
2022/07/03 00:10:17;;;;;;;3.90;2.10;;;;;;;16.29;100.00;101216.50;5030734;28;20419;-83
2022/07/03 00:12:51;;;;;;;7.38;2.00;;;;;;;16.29;100.00;101206.31;5031757;28;20441;-83
2022/07/03 00:15:19;;;;;;;3.50;2.17;;;;;;;16.28;100.00;101204.72;5030231;28;20799;-82
2022/07/03 00:17:52;;;;;;;3.92;2.10;;;;;;;16.26;100.00;101206.94;5032440;28;20407;-83
2022/07/03 00:20:31;;;;;;;4.03;2.20;;;;;;;16.26;100.00;101203.38;5030959;28;20438;-82
2022/07/03 00:23:07;;;;;;;4.18;2.10;;;;;;;16.23;100.00;101193.03;5027310;28;20436;-83
2022/07/03 00:25:42;;;;;;;4.25;2.15;;;;;;;16.23;100.00;101195.78;5029078;28;20467;-83
2022/07/03 00:28:19;;;;;;;3.03;2.10;;;;;;;16.19;100.00;101200.25;5028070;28;20506;-83
2022/07/03 00:30:55;;;;;;;2.95;2.03;;;;;;;16.13;100.00;101194.03;5025855;28;20433;-83
2022/07/03 00:33:33;;;;;;;2.72;1.98;;;;;;;16.09;100.00;101187.53;5040415;28;20417;-83
2022/07/03 00:36:07;;;;;;;2.67;1.90;;;;;;;16.10;100.00;101194.63;5034536;28;20434;-82
2022/07/03 00:38:41;;;;;;;3.33;2.10;;;;;;;16.04;100.00;101184.88;5030135;28;20954;-82
2022/07/03 00:41:28;;;;;;;3.45;2.00;;;;;;;16.00;100.00;101173.69;5028519;28;20422;-83
2022/07/03 00:44:01;;;;;;;3.85;2.10;;;;;;;16.00;100.00;101176.44;5025223;28;20432;-82
2022/07/03 00:46:30;;;;;;;4.30;2.20;;;;;;;15.96;100.00;101172.66;5022591;28;20909;-83
2022/07/03 00:49:05;;;;;;;4.75;2.20;;;;;;;15.94;100.00;101174.91;5040536;28;20909;-83
2022/07/03 00:51:35;;;;;;;3.10;2.05;;;;;;;15.93;100.00;101179.56;5038453;28;20411;-84
2022/07/03 00:54:10;;;;;;;3.30;2.03;;;;;;;15.91;100.00;101170.84;5030073;28;20427;-83
2022/07/03 00:56:50;;;;;;;3.35;2.03;;;;;;;15.85;100.00;101160.25;5034946;28;20431;-83
2022/07/03 00:59:23;;;;;;;4.57;2.28;;;;;;;15.87;100.00;101169.00;5022626;28;20669;-82
2022/07/03 01:02:04;;;;;;;4.93;2.10;;;;;;;15.84;100.00;101158.63;5030660;28;20419;-83
2022/07/03 01:04:45;;;;;;;3.70;2.03;;;;;;;15.92;100.00;101163.41;5024981;28;20427;-83
2022/07/03 01:07:30;;;;;;;2.53;1.92;;;;;;;15.91;100.00;101157.13;5027619;28;20953;-83
2022/07/03 01:10:08;;;;;;;4.43;2.20;;;;;;;15.94;100.00;101161.19;5031359;28;20419;-83
2022/07/03 01:12:56;;;;;;;3.53;2.20;;;;;;;15.93;100.00;101151.31;5017142;28;20435;-83
2022/07/03 01:15:40;;;;;;;3.22;2.13;;;;;;;15.93;100.00;101152.13;5024333;28;20429;-83
2022/07/03 01:18:28;;;;;;;3.60;2.00;;;;;;;15.91;100.00;101156.28;5026403;28;20419;-82
2022/07/03 01:21:08;;;;;;;5.18;1.98;;;;;;;15.90;100.00;101154.69;5028916;28;20454;-83
2022/07/03 01:24:08;;;;;;;3.25;2.00;;;;;;;15.81;100.00;101151.81;5026417;28;20422;-83
2022/07/03 01:26:47;;;;;;;3.60;1.98;;;;;;;15.81;100.00;101152.66;5023885;28;20444;-83
2022/07/03 01:29:26;;;;;;;2.70;1.85;;;;;;;15.78;100.00;101152.41;5029088;28;20423;-82
2022/07/03 01:31:56;;;;;;;3.47;2.08;;;;;;;15.80;100.00;101151.00;5028883;28;20426;-82
2022/07/03 01:34:35;;;;;;;2.78;1.90;;;;;;;15.78;100.00;101144.16;5028165;28;20917;-82
2022/07/03 01:37:11;;;;;;;3.67;2.10;;;;;;;15.70;100.00;101134.72;5029019;28;20531;-82
2022/07/03 01:39:42;;;;;;;3.67;2.05;;;;;;;15.72;100.00;101140.72;5024338;28;20423;-82
2022/07/03 01:42:18;;;;;;;3.45;2.08;;;;;;;15.67;100.00;101132.56;5030826;28;20440;-82
2022/07/03 01:44:53;;;;;;;3.38;2.10;;;;;;;15.67;100.00;101129.03;5029315;28;20927;-82
2022/07/03 01:47:29;;;;;;;3.58;2.10;;;;;;;15.66;100.00;101128.22;5026293;28;20784;-83
2022/07/03 01:50:03;;;;;;;3.40;2.10;;;;;;;15.56;100.00;101126.44;5038139;28;20900;-82
2022/07/03 01:52:38;;;;;;;3.13;2.13;;;;;;;15.54;100.00;101114.97;5025851;28;20431;-83
2022/07/03 01:55:07;;;;;;;3.10;2.30;;;;;;;15.56;100.00;101120.97;5024738;28;20431;-82
2022/07/03 01:57:45;;;;;;;4.32;2.10;;;;;;;15.57;100.00;101119.06;5029822;28;20428;-82
2022/07/03 02:00:22;;;;;;;4.35;2.17;;;;;;;15.52;100.00;101119.94;5025566;28;20435;-82
2022/07/03 02:02:59;;;;;;;3.70;2.13;;;;;;;15.54;100.00;101125.16;5029487;28;20417;-83
2022/07/03 02:05:39;;;;;;;3.63;2.22;;;;;;;15.51;100.00;101120.25;5043022;28;20425;-83
2022/07/03 02:08:25;;;;;;;4.05;2.20;;;;;;;15.49;100.00;101117.81;5029176;28;20454;-82
2022/07/03 02:11:08;;;;;;;3.38;2.00;;;;;;;15.48;100.00;101108.78;5025964;28;20419;-83
2022/07/03 02:13:54;;;;;;;3.33;2.20;;;;;;;15.44;100.00;101102.28;5030327;28;20426;-82
2022/07/03 02:16:24;;;;;;;3.40;2.00;;;;;;;15.61;100.00;101109.91;5030437;28;20455;-83
2022/07/03 02:18:58;;;;;;;3.97;2.20;;;;;;;15.63;100.00;101109.59;5046823;28;20415;-82
2022/07/03 02:21:32;;;;;;;4.15;2.20;;;;;;;15.58;100.00;101099.53;5032952;28;20418;-82
2022/07/03 02:24:19;;;;;;;4.40;2.08;;;;;;;15.65;100.00;101108.19;5022885;28;20443;-81
2022/07/03 02:26:55;;;;;;;3.88;2.03;;;;;;;15.60;100.00;101108.28;5033700;28;20430;-82
2022/07/03 02:29:36;;;;;;;3.57;1.93;;;;;;;15.62;100.00;101097.00;5028487;28;20548;-83
2022/07/03 02:32:14;;;;;;;3.70;2.20;;;;;;;15.60;100.00;101094.56;5031318;28;20509;-82
2022/07/03 02:34:57;;;;;;;3.38;2.10;;;;;;;15.57;100.00;101095.16;5032744;28;20437;-83
2022/07/03 02:37:34;;;;;;;4.63;2.37;;;;;;;15.55;100.00;101089.19;5041490;28;20420;-82
2022/07/03 02:40:10;;;;;;;3.10;2.15;;;;;;;15.56;100.00;101088.03;5038433;28;20760;-82
2022/07/03 02:42:59;;;;;;;5.80;2.40;;;;;;;15.52;100.00;101076.06;5019203;28;20765;-82
2022/07/03 02:45:41;;;;;;;3.00;2.20;;;;;;;15.53;100.00;101076.88;5047223;28;20436;-82
2022/07/03 02:48:29;;;;;;;4.55;2.10;;;;;;;15.55;100.00;101077.38;5032060;28;20415;-82
2022/07/03 02:51:09;;;;;;;3.70;2.15;;;;;;;15.57;100.00;101080.66;5024167;28;20442;-83
2022/07/03 02:53:48;;;;;;;3.72;2.20;;;;;;;15.58;100.00;101079.53;5032812;28;20433;-83
2022/07/03 02:56:27;;;;;;;3.25;2.20;;;;;;;15.58;100.00;101082.28;5032335;28;20413;-82
2022/07/03 02:59:08;;;;;;;3.72;2.30;;;;;;;15.63;100.00;101084.91;5033038;28;20433;-83
2022/07/03 03:01:55;;;;;;;3.75;2.20;;;;;;;15.59;100.00;101084.72;5034462;28;20419;-82
2022/07/03 03:04:31;;;;;;;3.45;2.10;;;;;;;15.60;100.00;101077.28;5030103;28;20737;-82
2022/07/03 03:07:09;;;;;;;4.20;2.25;;;;;;;15.47;100.00;101076.16;5041391;28;20423;-82
2022/07/03 03:09:45;;;;;;;3.83;1.90;;;;;;;15.37;100.00;101073.59;5026051;28;20941;-82
2022/07/03 03:12:30;;;;;;;3.92;2.40;;;;;;;15.48;100.00;101084.09;5027172;28;20777;-82
2022/07/03 03:15:05;;;;;;;3.47;2.17;;;;;;;15.43;100.00;101075.16;5028192;28;20919;-82
2022/07/03 03:17:42;;;;;;;3.42;2.10;;;;;;;15.43;100.00;101075.94;5037240;28;20409;-82
2022/07/03 03:20:18;;;;;;;3.78;2.17;;;;;;;15.41;100.00;101077.38;5029658;28;20430;-82
2022/07/03 03:23:04;;;;;;;4.75;2.20;;;;;;;15.44;100.00;101063.88;5033878;28;20433;-82
2022/07/03 03:25:37;;;;;;;4.18;2.05;;;;;;;15.48;100.00;101077.81;5028299;28;20426;-82
2022/07/03 03:28:11;;;;;;;3.35;2.30;;;;;;;15.47;100.00;101062.47;5026653;28;20431;-82
2022/07/03 03:30:44;;;;;;;3.72;2.20;;;;;;;15.50;100.00;101070.06;5030589;28;20431;-82
2022/07/03 03:33:14;;;;;;;2.90;2.10;;;;;;;15.53;100.00;101069.47;5030259;28;20439;-83
2022/07/03 03:35:43;;;;;;;4.65;2.20;;;;;;;15.55;100.00;101066.41;5041532;28;20413;-82
2022/07/03 03:38:16;;;;;;;3.67;2.05;;;;;;;15.56;100.00;101063.34;5039209;28;20415;-82
2022/07/03 03:40:50;;;;;;;3.25;2.15;;;;;;;15.63;100.00;101065.69;5023558;28;20783;-82
2022/07/03 03:43:23;;;;;;;2.90;1.90;;;;;;;15.72;100.00;101066.63;5030799;28;20442;-82
2022/07/03 03:45:57;;;;;;;2.97;2.10;;;;;;;15.71;100.00;101059.50;5029292;28;20450;-82
2022/07/03 03:48:27;;;;;;;3.75;2.10;;;;;;;15.79;100.00;101067.06;5040899;28;21363;-82
2022/07/03 03:51:01;;;;;;;3.88;2.08;;;;;;;15.84;100.00;101055.19;5042127;28;20430;-82
2022/07/03 03:53:35;;;;;;;2.95;2.10;;;;;;;15.86;100.00;101057.59;5031436;28;20910;-82
2022/07/03 03:56:05;;;;;;;4.43;2.10;;;;;;;15.95;100.00;101053.84;5025552;28;20825;-82
2022/07/03 03:58:35;;;;;;;4.00;2.20;;;;;;;15.96;100.00;101055.47;5028299;28;20779;-82
2022/07/03 04:01:10;;;;;;;5.22;2.13;;;;;;;15.96;100.00;101052.72;5029936;28;20589;-82
2022/07/03 04:03:45;;;;;;;4.03;2.30;;;;;;;15.98;100.00;101047.72;5043987;28;20423;-82
2022/07/03 04:06:20;;;;;;;3.60;2.20;;;;;;;15.98;100.00;101044.97;5029910;28;20437;-84
2022/07/03 04:08:48;;;;;;;3.70;2.08;;;;;;;16.05;100.00;101049.25;5029538;28;20799;-83
2022/07/03 04:11:16;;;;;;;2.80;1.98;;;;;;;16.05;100.00;101050.06;5028318;28;20423;-82
2022/07/03 04:13:49;;;;;;;5.13;2.10;;;;;;;16.08;100.00;101046.69;5029648;28;20434;-83
2022/07/03 04:16:22;;;;;;;4.85;1.92;;;;;;;16.14;100.00;101050.97;5035556;28;20430;-82
2022/07/03 04:18:52;;;;;;;2.95;2.10;;;;;;;16.11;100.00;101051.56;5029844;28;20418;-82
2022/07/03 04:21:25;;;;;;;2.95;2.13;;;;;;;16.07;100.00;101045.06;5036806;28;20929;-82
2022/07/03 04:23:58;;;;;;;4.50;2.20;;;;;;;16.10;100.00;101049.94;5029281;28;20419;-82
2022/07/03 04:26:32;;;;;;;4.30;2.13;;;;;;;16.10;100.00;101044.47;5028002;28;20807;-82
2022/07/03 04:29:05;;;;;;;4.55;2.35;;;;;;;16.07;100.00;101042.31;5028874;28;20438;-84
2022/07/03 04:31:38;;;;;;;3.70;2.15;;;;;;;16.04;100.00;101042.94;5027933;28;20427;-82
2022/07/03 04:34:13;;;;;;;2.78;2.20;;;;;;;16.01;100.00;101037.25;5030704;28;20422;-82
2022/07/03 04:36:46;;;;;;;3.97;2.27;;;;;;;15.98;100.00;101033.19;5024334;28;20532;-83
2022/07/03 04:39:19;;;;;;;3.30;2.20;;;;;;;15.96;100.00;101035.41;5033372;28;20424;-82
2022/07/03 04:41:52;;;;;;;3.50;2.10;;;;;;;15.91;100.00;101033.63;5029164;28;20430;-82
2022/07/03 04:44:25;;;;;;;2.88;2.10;;;;;;;15.97;100.00;101029.63;5030879;28;20430;-83
2022/07/03 04:46:58;;;;;;;2.83;2.00;;;;;;;16.01;100.00;101035.31;5026158;28;20636;-83
2022/07/03 04:49:33;;;;;;;3.38;2.20;;;;;;;16.04;100.00;101033.91;5041242;28;20897;-83
2022/07/03 04:52:07;;;;;;;3.20;2.13;;;;;;;16.04;100.00;101033.91;5028263;28;20434;-84
2022/07/03 04:54:40;;;;;;;3.72;2.30;;;;;;;15.92;100.00;101016.03;4992742;28;20835;-84
2022/07/03 04:57:13;;;;;;;4.80;2.20;;;;;;;15.93;100.00;101027.81;4991109;28;20911;-83
2022/07/03 04:59:47;;;;;;;4.65;2.22;;;;;;;15.97;100.00;101031.56;4986467;28;20439;-82
2022/07/03 05:02:20;;;;;;;3.83;2.33;;;;;;;16.05;100.00;101030.03;4994449;28;20431;-83
2022/07/03 05:04:49;;;;;;;3.30;2.15;;;;;;;16.09;100.00;101036.53;4993913;28;20427;-83
2022/07/03 05:07:18;;;;;;;3.85;2.45;;;;;;;16.20;100.00;101029.69;4998374;28;20419;-83
2022/07/03 05:09:51;;;;;;;3.47;2.20;;;;;;;16.26;100.00;101019.41;4995918;28;20443;-82
2022/07/03 05:12:24;;;;;;;3.08;2.17;;;;;;;17.21;100.00;101018.44;4992708;28;20438;-83
2022/07/03 05:14:57;;;;;;;3.42;2.30;;;;;;;18.81;100.00;101013.63;4990138;28;20439;-82
2022/07/03 05:17:30;;;;;;;2.72;2.10;;;;;;;20.29;100.00;101008.56;4996463;28;20446;-83
2022/07/03 05:22:58;;;;;;;4.13;2.05;;;;;;;22.71;100.00;101001.28;4992271;28;20423;-83
2022/07/03 05:25:28;;;;;;;2.63;1.98;;;;;;;22.24;92.40;100999.97;4997960;28;20415;-83
2022/07/03 05:27:56;;;;;;;3.20;1.90;;;;;;;23.17;96.79;100989.78;4990604;28;20430;-83
2022/07/03 05:30:29;;;;;;;2.80;1.90;;;;;;;23.47;88.06;100994.88;4988453;28;20470;-82
2022/07/03 05:33:02;;;;;;;5.03;1.80;;;;;;;23.47;86.98;100983.78;4988892;28;20446;-83
2022/07/03 05:35:32;;;;;;;4.22;1.83;;;;;;;22.48;97.67;100984.41;4997272;28;20927;-83
2022/07/03 05:38:05;;;;;;;3.27;1.80;;;;;;;21.14;100.00;100987.03;4998441;28;20427;-84
2022/07/03 05:40:38;;;;;;;2.47;1.80;;;;;;;19.98;100.00;101001.47;4995393;28;20995;-83
2022/07/03 05:43:11;;;;;;;2.85;1.95;;;;;;;19.19;100.00;101001.88;5000344;28;20442;-82
2022/07/03 05:45:45;;;;;;;2.70;1.98;;;;;;;18.76;100.00;101009.09;4995177;28;20435;-82
2022/07/03 05:48:18;;;;;;;3.03;2.10;;;;;;;18.81;100.00;101000.66;5001590;28;20434;-82
2022/07/03 05:50:52;;;;;;;2.53;2.00;;;;;;;19.08;100.00;100992.34;4994380;28;20437;-84
2022/07/03 05:53:25;;;;;;;4.40;2.03;;;;;;;19.07;100.00;100990.72;4995504;28;20434;-82
2022/07/03 05:55:59;;;;;;;3.03;2.00;;;;;;;18.89;100.00;100995.47;4994712;28;20438;-83
2022/07/03 05:58:32;;;;;;;5.07;2.20;;;;;;;18.51;100.00;101006.06;5001501;28;20502;-83
2022/07/03 06:01:05;;;;;;;3.00;2.20;;;;;;;18.64;100.00;100997.94;4992554;28;21504;-82
2022/07/03 06:03:38;;;;;;;3.15;2.10;;;;;;;18.88;100.00;101002.94;4994638;28;20445;-83
2022/07/03 06:06:08;;;;;;;4.20;2.20;;;;;;;18.93;100.00;100990.91;4995720;28;20430;-83
2022/07/03 06:08:36;;;;;;;3.85;2.03;;;;;;;19.37;100.00;100999.84;5001291;28;20435;-83
2022/07/03 06:11:05;;;;;;;4.07;2.20;;;;;;;19.31;100.00;100992.91;4990742;28;20434;-83
2022/07/03 06:13:38;;;;;;;3.92;2.20;;;;;;;19.34;100.00;100995.78;4989249;28;20452;-82
2022/07/03 06:16:06;;;;;;;3.13;2.05;;;;;;;19.53;100.00;100989.06;4994689;28;22628;-84
2022/07/03 06:18:39;;;;;;;4.28;2.33;;;;;;;19.25;100.00;100995.03;4996928;28;20421;-82
2022/07/03 06:21:14;;;;;;;3.77;2.30;;;;;;;19.47;100.00;100988.44;4997217;28;20434;-83
2022/07/03 06:23:42;;;;;;;3.17;2.30;;;;;;;19.65;100.00;100993.84;4990203;28;20462;-83
2022/07/03 06:26:16;;;;;;;3.42;2.20;;;;;;;19.85;100.00;100992.28;4997981;28;20438;-82
2022/07/03 06:28:49;;;;;;;6.75;2.45;;;;;;;19.84;100.00;100993.44;4995667;28;20438;-83
2022/07/03 06:31:22;;;;;;;5.22;2.40;;;;;;;19.83;100.00;101000.09;4990883;28;20908;-82
2022/07/03 06:33:55;;;;;;;3.22;2.10;;;;;;;19.99;100.00;101023.22;4992662;28;20453;-82
2022/07/03 06:36:30;;;;;;;4.00;2.20;;;;;;;20.13;100.00;101013.88;5004691;28;20442;-82
2022/07/03 06:38:58;;;;;;;4.82;2.33;;;;;;;20.23;100.00;101018.97;5017455;28;20922;-83
2022/07/03 06:41:26;;;;;;;4.85;2.30;;;;;;;20.40;100.00;101018.03;4997905;28;20439;-83
2022/07/03 06:43:59;;;;;;;3.10;2.30;;;;;;;20.45;100.00;101009.50;4998047;28;20443;-82
2022/07/03 06:46:32;;;;;;;4.20;2.40;;;;;;;20.47;100.00;101018.28;4986585;28;20878;-82
2022/07/03 06:49:06;;;;;;;3.25;2.30;;;;;;;20.46;100.00;101011.13;5013982;28;20446;-82
2022/07/03 06:51:41;;;;;;;2.95;2.17;;;;;;;20.49;100.00;100996.63;5020859;28;20830;-82
2022/07/03 06:54:14;;;;;;;4.00;2.40;;;;;;;20.83;100.00;101004.97;5028073;28;20434;-81
2022/07/03 06:56:47;;;;;;;3.47;2.25;;;;;;;20.71;100.00;101002.97;5023850;28;20435;-82
2022/07/03 06:59:21;;;;;;;4.30;2.45;;;;;;;20.83;100.00;101011.28;5027401;28;20438;-82
2022/07/03 07:01:54;;;;;;;3.63;2.40;;;;;;;20.87;100.00;101001.16;5030186;28;20957;-82
2022/07/03 07:04:22;;;;;;;3.80;2.38;;;;;;;20.80;100.00;100997.34;5030668;28;20434;-82
2022/07/03 07:06:56;;;;;;;3.53;2.13;;;;;;;20.90;100.00;101003.25;5032786;28;20429;-84
2022/07/03 07:09:29;;;;;;;4.00;2.28;;;;;;;20.88;100.00;101004.72;5030696;28;20435;-83
2022/07/03 07:12:03;;;;;;;3.10;2.20;;;;;;;21.03;100.00;101004.09;5024123;28;20436;-83
2022/07/03 07:14:36;;;;;;;3.47;2.38;;;;;;;21.04;100.00;101000.16;5028024;28;20772;-82
2022/07/03 07:17:09;;;;;;;3.53;2.25;;;;;;;21.06;100.00;100997.88;5024380;28;20435;-83
2022/07/03 07:19:42;;;;;;;3.42;2.20;;;;;;;21.14;100.00;100998.09;5026417;28;20434;-82
2022/07/03 07:22:12;;;;;;;3.35;2.10;;;;;;;21.26;100.00;100991.78;5027262;28;20427;-82
2022/07/03 07:24:45;;;;;;;3.13;2.00;;;;;;;21.34;100.00;101004.69;5024021;28;20419;-82
2022/07/03 07:27:18;;;;;;;4.10;2.30;;;;;;;21.45;100.00;101002.25;5029432;28;20436;-82
2022/07/03 07:29:51;;;;;;;3.65;2.30;;;;;;;21.42;100.00;101009.31;5029926;28;20725;-82
2022/07/03 07:32:25;;;;;;;4.07;2.27;;;;;;;21.50;100.00;101007.56;5027314;28;20430;-83
2022/07/03 07:34:58;;;;;;;4.90;2.30;;;;;;;21.65;100.00;101003.31;5026663;28;20780;-83
2022/07/03 07:37:32;;;;;;;3.55;2.25;;;;;;;21.71;100.00;101005.50;5027887;28;20769;-82
2022/07/03 07:40:07;;;;;;;3.78;2.22;;;;;;;21.78;100.00;101002.16;5028014;28;20709;-82
2022/07/03 07:42:42;;;;;;;3.53;2.47;;;;;;;21.93;100.00;101003.41;5037372;28;20427;-82
2022/07/03 07:45:15;;;;;;;3.47;2.13;;;;;;;21.94;100.00;100995.91;5041240;28;20425;-82
2022/07/03 07:47:48;;;;;;;3.60;2.10;;;;;;;21.92;100.00;101004.56;5028060;28;20439;-83
2022/07/03 07:50:22;;;;;;;2.63;2.08;;;;;;;21.91;100.00;101008.47;5016908;28;20899;-83
2022/07/03 07:52:56;;;;;;;4.15;2.20;;;;;;;21.88;100.00;101009.97;5025958;28;20437;-83
2022/07/03 07:55:29;;;;;;;3.85;2.20;;;;;;;21.95;100.00;100998.31;5026219;28;20418;-83
2022/07/03 07:58:03;;;;;;;3.70;2.40;;;;;;;22.08;100.00;100999.91;5026899;28;20423;-83
2022/07/03 08:00:36;;;;;;;3.97;2.33;;;;;;;21.99;100.00;101001.22;5020344;28;20431;-82
2022/07/03 08:05:55;;;;;;;3.88;2.10;;;;;;;22.12;100.00;100997.22;5023996;28;20435;-82
2022/07/03 08:08:29;;;;;;;3.08;2.15;;;;;;;22.15;100.00;101001.25;5022660;28;20770;-82
2022/07/03 08:10:58;;;;;;;4.03;2.30;;;;;;;22.25;100.00;100998.81;5022318;28;20823;-82
2022/07/03 08:13:31;;;;;;;4.30;2.40;;;;;;;22.41;100.00;100998.91;5024465;28;20423;-82
2022/07/03 08:16:05;;;;;;;4.05;2.28;;;;;;;22.49;100.00;101002.66;5024222;28;20746;-82
2022/07/03 08:18:33;;;;;;;4.83;2.20;;;;;;;22.70;100.00;100998.88;5023093;28;20449;-82
2022/07/03 08:21:01;;;;;;;3.53;2.38;;;;;;;22.62;100.00;101000.66;5024376;28;20430;-83
2022/07/03 08:23:31;;;;;;;5.18;2.22;;;;;;;22.68;100.00;101007.56;5027466;28;20787;-83
2022/07/03 08:25:59;;;;;;;3.72;2.30;;;;;;;22.82;100.00;100996.03;5025009;28;20427;-83
2022/07/03 08:28:32;;;;;;;4.00;2.20;;;;;;;22.92;100.00;101003.03;5028055;28;20419;-82
2022/07/03 08:31:01;;;;;;;4.07;2.28;;;;;;;23.16;100.00;101004.88;5027592;28;20921;-83
2022/07/03 08:33:29;;;;;;;3.30;2.10;;;;;;;23.23;100.00;100999.47;5025585;28;20431;-83
2022/07/03 08:36:03;;;;;;;2.95;2.10;;;;;;;23.42;100.00;101006.25;5025366;28;20427;-81
2022/07/03 08:38:38;;;;;;;6.00;4.07;;;;;;;23.54;100.00;101002.59;5022954;28;20442;-81
2022/07/03 08:41:11;;;;;;;5.35;2.72;;;;;;;23.38;100.00;100994.25;5023529;28;20464;-81
2022/07/03 08:43:45;;;;;;;2.85;2.20;;;;;;;23.18;100.00;101002.53;5027906;28;20430;-81
2022/07/03 08:46:20;;;;;;;7.30;2.03;;;;;;;23.04;100.00;101002.16;5023969;28;20457;-82
2022/07/03 08:48:54;;;;;;;4.13;2.30;;;;;;;23.05;100.00;100987.91;5023467;28;20526;-82
2022/07/03 08:51:54;;;;;;;2.53;2.10;;;;;;;22.89;100.00;100989.88;5030971;28;20474;-82
2022/07/03 08:54:28;;;;;;;3.50;2.10;;;;;;;23.12;100.00;101000.34;5027394;28;20419;-81
2022/07/03 08:57:02;;;;;;;4.93;2.20;;;;;;;23.33;100.00;101000.13;5022965;28;20437;-81
2022/07/03 08:59:36;;;;;;;2.60;2.00;;;;;;;23.58;100.00;100998.72;5024636;28;20423;-82
2022/07/03 09:02:09;;;;;;;2.67;2.08;;;;;;;23.75;100.00;100988.38;5021543;28;20437;-81
2022/07/03 09:04:39;;;;;;;3.28;2.20;;;;;;;23.67;100.00;100992.16;5024042;28;20943;-83
2022/07/03 09:07:08;;;;;;;4.28;2.30;;;;;;;23.75;100.00;100991.16;5022252;28;20914;-81
2022/07/03 09:09:44;;;;;;;3.35;2.30;;;;;;;23.86;100.00;100983.06;5027937;28;20771;-81
2022/07/03 09:12:20;;;;;;;3.40;2.05;;;;;;;24.24;100.00;100978.72;5024846;28;21120;-83
2022/07/03 09:14:54;;;;;;;4.90;2.00;;;;;;;24.44;100.00;100988.69;5021950;28;20445;-83
2022/07/03 09:17:22;;;;;;;5.33;2.33;;;;;;;24.60;100.00;100985.00;5024966;28;20431;-82
2022/07/03 09:19:51;;;;;;;3.25;2.20;;;;;;;24.49;100.00;100982.00;5028453;28;20431;-82
2022/07/03 09:22:26;;;;;;;3.87;2.30;;;;;;;24.73;100.00;100994.78;5020183;28;20436;-82
2022/07/03 09:25:07;;;;;;;3.87;2.20;;;;;;;24.84;100.00;100985.84;5019414;28;20432;-82
2022/07/03 09:27:54;;;;;;;2.88;2.17;;;;;;;24.91;100.00;100989.56;5021722;28;20438;-82
2022/07/03 09:30:27;;;;;;;3.47;2.30;;;;;;;24.67;100.00;100984.34;5019006;28;20435;-81
2022/07/03 09:32:55;;;;;;;3.65;2.40;;;;;;;24.89;100.00;100974.41;5017772;28;20455;-83
2022/07/03 09:35:28;;;;;;;3.10;2.17;;;;;;;24.84;93.27;100978.28;5037181;28;20431;-82
2022/07/03 09:38:04;;;;;;;2.80;2.10;;;;;;;25.08;100.00;100979.09;5020308;28;20429;-81
2022/07/03 09:40:50;;;;;;;3.10;2.20;;;;;;;25.24;96.63;100976.97;5023209;28;20930;-81
2022/07/03 09:43:25;;;;;;;3.10;2.15;;;;;;;25.12;100.00;100975.19;5017580;28;20430;-80
2022/07/03 09:46:00;;;;;;;3.53;2.13;;;;;;;25.29;100.00;100976.66;5022365;28;20504;-82
2022/07/03 09:48:35;;;;;;;4.70;2.40;;;;;;;25.48;100.00;100977.78;5020752;28;20781;-82
2022/07/03 09:51:17;;;;;;;3.72;2.30;;;;;;;25.55;100.00;100972.31;5024527;28;21091;-81
2022/07/03 09:53:52;;;;;;;3.33;2.05;;;;;;;25.78;97.65;100974.22;5024438;28;20776;-82
2022/07/03 09:56:28;;;;;;;2.75;2.10;;;;;;;25.45;86.99;100970.97;5032742;28;20433;-82
2022/07/03 09:59:08;;;;;;;5.07;2.28;;;;;;;25.26;87.79;100980.19;5020780;28;20425;-81
2022/07/03 10:01:43;;;;;;;3.17;2.03;;;;;;;25.51;100.00;100981.78;5022933;28;20419;-81
2022/07/03 10:04:19;;;;;;;2.97;2.08;;;;;;;25.60;100.00;100974.78;5021891;28;20948;-81
2022/07/03 10:06:54;;;;;;;2.40;1.60;;;;;;;25.44;73.36;100974.94;5032884;28;20438;-82
2022/07/03 10:09:29;;;;;;;2.65;1.70;;;;;;;25.69;77.54;100973.69;5026221;28;20434;-82
2022/07/03 10:12:04;;;;;;;2.40;1.70;;;;;;;25.68;80.74;100970.09;5024935;28;20430;-83
2022/07/03 10:14:33;;;;;;;2.70;1.60;;;;;;;25.61;72.55;100964.44;5026020;28;20415;-82
2022/07/03 10:17:07;;;;;;;2.50;1.60;;;;;;;25.60;73.62;100963.63;5027422;28;20415;-82
2022/07/03 10:19:39;;;;;;;3.00;1.70;;;;;;;25.61;71.13;100970.78;5025191;28;20921;-82
2022/07/03 10:22:22;;;;;;;4.20;1.60;;;;;;;25.55;69.16;100951.97;5011276;28;20435;-82
2022/07/03 10:24:52;;;;;;;4.30;1.60;;;;;;;25.25;74.26;100966.66;4999863;28;20911;-83
2022/07/03 10:27:30;;;;;;;2.17;1.60;;;;;;;25.09;73.43;100975.94;5010695;28;20422;-82
2022/07/03 10:29:59;;;;;;;2.60;1.70;;;;;;;25.26;73.43;100966.28;4990385;28;20426;-81
2022/07/03 10:32:28;;;;;;;1.80;1.50;;;;;;;25.42;74.35;100970.91;4998952;28;20426;-81
2022/07/03 10:34:57;;;;;;;2.70;1.60;;;;;;;25.21;76.36;100972.16;4991360;28;20958;-81
2022/07/03 10:37:42;;;;;;;2.45;1.67;;;;;;;25.44;81.73;100969.34;4989180;28;20602;-81
2022/07/03 10:46:12;;;;;;;2.80;1.80;;;;;;;25.55;85.54;100972.31;4997440;28;20433;-82
2022/07/03 10:49:05;;;;;;;3.45;1.70;;;;;;;25.28;83.83;100969.47;4994487;28;20431;-81
2022/07/03 10:51:56;;;;;;;2.45;1.70;;;;;;;25.06;79.26;100968.31;4990699;28;20797;-81
2022/07/03 10:54:31;;;;;;;2.55;1.73;;;;;;;24.93;83.78;100972.50;5000471;28;20423;-81
2022/07/03 10:57:17;;;;;;;2.13;1.70;;;;;;;25.41;78.18;100964.53;5003588;28;20438;-81
2022/07/03 11:00:13;;;;;;;2.65;1.73;;;;;;;25.84;70.28;100964.34;4993396;28;20442;-81
2022/07/03 11:02:49;;;;;;;2.35;1.52;;;;;;;25.96;73.14;100949.34;4999458;28;20930;-81
2022/07/03 11:05:24;;;;;;;3.35;1.70;;;;;;;26.03;71.10;100959.81;5015534;28;20422;-82
2022/07/03 11:08:09;;;;;;;3.55;1.60;;;;;;;26.13;82.25;100961.97;5030384;28;20450;-83
2022/07/03 11:10:41;;;;;;;2.40;1.50;;;;;;;26.60;62.80;100959.69;5028198;28;20427;-82
2022/07/03 11:13:20;;;;;;;2.47;1.50;;;;;;;26.22;66.33;100953.28;5027447;28;20907;-82
2022/07/03 11:15:54;;;;;;;2.53;1.70;;;;;;;26.09;75.04;100952.75;5025791;28;20427;-83
2022/07/03 11:18:30;;;;;;;2.40;1.70;;;;;;;25.82;60.43;100954.75;5028129;28;20445;-83
2022/07/03 11:21:32;;;;;;;2.55;1.65;;;;;;;25.99;68.95;100959.75;5039361;28;20431;-87
2022/07/03 11:24:32;;;;;;;3.10;1.90;;;;;;;25.94;62.73;100948.94;5026604;28;20916;-85
2022/07/03 11:27:24;;;;;;;2.40;1.70;;;;;;;26.36;59.19;100950.63;5027877;28;20427;-81
2022/07/03 11:29:59;;;;;;;2.38;1.70;;;;;;;26.36;77.63;100953.44;5035816;28;20433;-81
2022/07/03 11:32:51;;;;;;;2.58;1.70;;;;;;;26.38;80.77;100953.88;5025423;28;20423;-84
2022/07/03 11:35:44;;;;;;;2.60;1.83;;;;;;;25.84;70.42;100941.22;5024751;28;20451;-85
2022/07/03 11:38:21;;;;;;;3.67;2.07;;;;;;;25.88;69.53;100947.66;5030476;28;20446;-84
2022/07/03 11:40:56;;;;;;;3.13;1.98;;;;;;;26.34;67.02;100943.88;5025134;28;20435;-84
2022/07/03 11:43:30;;;;;;;4.22;1.92;;;;;;;26.57;64.41;100936.13;5046735;28;21093;-84
2022/07/03 11:46:05;;;;;;;3.10;1.93;;;;;;;26.48;60.28;100939.22;5026580;28;20883;-86
2022/07/03 11:48:39;;;;;;;2.90;1.88;;;;;;;26.72;75.27;100939.84;5027231;28;20462;-84
2022/07/03 11:51:13;;;;;;;3.50;1.90;;;;;;;26.78;69.75;100941.13;5028076;28;20429;-84
2022/07/03 11:53:46;;;;;;;2.85;1.80;;;;;;;26.70;65.60;100933.88;5024573;28;20436;-84
2022/07/03 11:56:15;;;;;;;3.78;1.92;;;;;;;26.89;63.23;100940.41;5028080;28;20429;-84
2022/07/03 11:58:45;;;;;;;5.78;2.22;;;;;;;26.88;76.11;100933.25;5036347;28;20412;-82
2022/07/03 12:01:30;;;;;;;4.35;2.00;;;;;;;26.97;71.03;100925.31;5025939;28;20429;-85
2022/07/03 12:04:08;;;;;;;4.70;1.80;;;;;;;27.08;65.89;100925.41;5024351;28;20486;-84
2022/07/03 12:06:43;;;;;;;4.10;1.80;;;;;;;26.85;73.75;100936.78;5026813;28;20419;-83